createdAt,value
2023-08-20T00:00:49.475Z,19.60
2023-08-20T00:05:06.436Z,16.60
2023-08-20T00:09:04.482Z,16.00
2023-08-20T00:13:02.510Z,16.20
2023-08-20T00:17:01.497Z,20.10
2023-08-20T00:20:59.407Z,17.30
2023-08-20T00:24:57.447Z,15.80
2023-08-20T00:28:55.409Z,18.30
2023-08-20T00:32:53.574Z,18.20
2023-08-20T00:36:51.397Z,18.30
2023-08-20T00:40:49.404Z,20.20
2023-08-20T00:44:48.382Z,17.50
2023-08-20T00:48:46.394Z,17.40
2023-08-20T00:52:45.376Z,17.20
2023-08-20T00:56:43.422Z,18.00
2023-08-20T01:00:41.415Z,17.00
2023-08-20T01:04:39.481Z,19.70
2023-08-20T01:08:43.339Z,18.90
2023-08-20T01:12:41.393Z,17.10
2023-08-20T01:16:39.379Z,18.20
2023-08-20T01:21:06.448Z,18.80
2023-08-20T01:25:31.356Z,19.90
2023-08-20T01:29:29.479Z,20.20
2023-08-20T01:33:29.399Z,22.20
2023-08-20T01:37:27.443Z,20.30
2023-08-20T01:41:25.358Z,18.80
2023-08-20T01:45:23.360Z,17.70
2023-08-20T01:49:21.349Z,18.10
2023-08-20T01:53:19.353Z,18.00
2023-08-20T01:57:17.306Z,15.80
2023-08-20T02:01:15.415Z,16.80
2023-08-20T02:05:13.408Z,17.00
2023-08-20T02:09:11.374Z,17.80
2023-08-20T02:13:09.301Z,16.90
2023-08-20T02:17:07.363Z,17.70
2023-08-20T02:21:05.350Z,21.70
2023-08-20T02:25:03.342Z,18.30
2023-08-20T02:29:01.304Z,16.80
2023-08-20T02:33:00.327Z,17.50
2023-08-20T02:36:58.287Z,16.60
2023-08-20T02:40:58.353Z,17.50
2023-08-20T02:44:56.271Z,17.50
2023-08-20T02:48:54.328Z,18.10
2023-08-20T02:52:52.285Z,18.40
2023-08-20T02:56:50.276Z,17.60
2023-08-20T03:00:48.278Z,18.00
2023-08-20T03:04:46.312Z,19.50
2023-08-20T03:08:44.275Z,17.70
2023-08-20T03:12:42.398Z,20.10
2023-08-20T03:16:40.261Z,17.70
2023-08-20T03:20:39.289Z,19.00
2023-08-20T03:24:37.265Z,18.80
2023-08-20T03:28:35.288Z,21.40
2023-08-20T03:32:33.313Z,19.90
2023-08-20T03:36:32.283Z,18.40
2023-08-20T03:40:30.247Z,19.80
2023-08-20T03:44:28.281Z,18.30
2023-08-20T03:48:26.265Z,18.60
2023-08-20T03:52:24.266Z,19.70
2023-08-20T03:56:22.237Z,18.90
2023-08-20T04:00:20.294Z,18.40
2023-08-20T04:04:19.238Z,19.50
2023-08-20T04:08:17.243Z,21.70
2023-08-20T04:12:15.231Z,17.80
2023-08-20T04:16:13.271Z,18.20
2023-08-20T04:20:11.197Z,20.60
2023-08-20T04:24:09.309Z,18.30
2023-08-20T04:28:07.173Z,19.50
2023-08-20T04:32:05.225Z,17.10
2023-08-20T04:36:04.162Z,18.40
2023-08-20T04:40:03.221Z,19.30
2023-08-20T04:44:01.203Z,17.10
2023-08-20T04:47:59.308Z,22.20
2023-08-20T04:51:57.203Z,19.50
2023-08-20T04:55:55.177Z,18.20
2023-08-20T04:59:53.160Z,16.00
2023-08-20T05:04:17.220Z,18.20
2023-08-20T05:08:15.178Z,17.40
2023-08-20T05:12:13.179Z,21.40
2023-08-20T05:16:11.214Z,17.80
2023-08-20T05:20:09.242Z,18.80
2023-08-20T05:24:07.163Z,18.70
2023-08-20T05:28:05.168Z,18.80
2023-08-20T05:32:03.140Z,21.70
2023-08-20T05:36:02.364Z,17.50
2023-08-20T05:40:00.150Z,18.80
2023-08-20T05:44:31.151Z,19.50
2023-08-20T05:48:29.126Z,18.90
2023-08-20T05:52:27.173Z,21.20
2023-08-20T05:56:25.126Z,22.00
2023-08-20T06:00:24.112Z,21.50
2023-08-20T06:04:15.249Z,20.70
2023-08-20T06:08:13.156Z,21.30
2023-08-20T06:12:11.129Z,21.40
2023-08-20T06:20:13.138Z,22.80
2023-08-20T06:24:11.175Z,22.50
2023-08-20T06:28:09.117Z,25.80
2023-08-20T06:32:07.183Z,22.50
2023-08-20T06:36:05.118Z,22.90
2023-08-20T06:40:03.128Z,20.40
2023-08-20T06:44:01.120Z,20.90
2023-08-20T06:47:59.137Z,22.40
2023-08-20T06:51:57.060Z,24.20
2023-08-20T06:55:55.162Z,23.40
2023-08-20T06:59:53.093Z,21.40
2023-08-20T07:03:55.110Z,21.00
2023-08-20T07:07:53.089Z,21.70
2023-08-20T07:11:51.238Z,23.90
2023-08-20T07:15:49.082Z,28.10
2023-08-20T07:19:47.060Z,22.40
2023-08-20T07:23:45.047Z,22.80
2023-08-20T07:27:43.194Z,22.40
2023-08-20T07:31:46.054Z,22.30
2023-08-20T07:35:44.067Z,23.60
2023-08-20T07:39:42.048Z,23.60
2023-08-20T07:43:40.046Z,22.10
2023-08-20T07:47:38.453Z,23.70
2023-08-20T07:51:36.043Z,23.40
2023-08-20T07:55:34.052Z,23.50
2023-08-20T07:59:32.062Z,20.60
2023-08-20T08:03:30.267Z,20.80
2023-08-20T08:07:28.042Z,20.40
2023-08-20T08:11:26.033Z,20.10
2023-08-20T08:15:24.125Z,21.60
2023-08-20T08:19:21.994Z,22.80
2023-08-20T08:23:20.112Z,22.50
2023-08-20T08:27:18.013Z,22.70
2023-08-20T08:31:16.124Z,23.50
2023-08-20T08:35:13.991Z,23.40
2023-08-20T08:39:12.054Z,22.90
2023-08-20T08:43:10.028Z,22.90
2023-08-20T08:47:08.005Z,23.50
2023-08-20T08:51:06.980Z,24.00
2023-08-20T08:55:05.047Z,21.10
2023-08-20T08:59:03.306Z,24.60
2023-08-20T09:03:01.111Z,23.20
2023-08-20T09:07:05.981Z,21.10
2023-08-20T09:11:09.023Z,27.30
2023-08-20T09:15:07.960Z,19.90
2023-08-20T09:19:06.988Z,21.50
2023-08-20T09:23:04.950Z,19.50
2023-08-20T09:27:03.034Z,24.40
2023-08-20T09:31:15.995Z,18.40
2023-08-20T09:35:14.006Z,19.30
2023-08-20T09:39:11.977Z,15.80
2023-08-20T09:43:10.042Z,22.70
2023-08-20T09:47:08.016Z,16.70
2023-08-20T09:51:08.032Z,18.50
2023-08-20T09:55:16.920Z,16.90
2023-08-20T09:59:15.942Z,22.00
2023-08-20T10:03:14.984Z,15.00
2023-08-20T10:07:13.929Z,15.70
2023-08-20T10:11:18.911Z,15.10
2023-08-20T10:15:19.992Z,15.70
2023-08-20T10:19:18.928Z,13.00
2023-08-20T10:23:18.976Z,16.50
2023-08-20T10:27:25.892Z,12.30
2023-08-20T10:31:27.981Z,12.40
2023-08-20T10:35:25.901Z,12.40
2023-08-20T10:39:36.105Z,12.10
2023-08-20T10:43:45.898Z,13.20
2023-08-20T10:48:03.945Z,12.60
2023-08-20T10:52:04.891Z,14.90
2023-08-20T10:56:05.934Z,13.90
2023-08-20T11:00:16.944Z,14.10
2023-08-20T11:04:16.036Z,16.80
2023-08-20T11:08:16.003Z,13.70
2023-08-20T11:12:13.913Z,15.30
2023-08-20T11:16:11.973Z,14.10
2023-08-20T11:20:12.982Z,14.70
2023-08-20T11:24:10.888Z,16.50
2023-08-20T11:28:09.425Z,14.40
2023-08-20T11:32:10.850Z,15.80
2023-08-20T11:36:08.986Z,13.60
2023-08-20T11:40:06.869Z,13.30
2023-08-20T11:44:05.919Z,14.10
2023-08-20T11:48:03.882Z,13.30
2023-08-20T11:52:03.867Z,13.10
2023-08-20T11:56:01.930Z,16.20
2023-08-20T11:59:59.890Z,12.70
2023-08-20T12:04:05.966Z,13.00
2023-08-20T12:08:17.895Z,14.20
2023-08-20T12:12:16.480Z,14.20
2023-08-20T12:16:13.891Z,16.50
2023-08-20T12:20:17.914Z,12.70
2023-08-20T12:24:15.847Z,15.30
2023-08-20T12:28:13.822Z,16.00
2023-08-20T12:32:14.831Z,15.90
2023-08-20T12:36:13.806Z,19.10
2023-08-20T12:40:15.827Z,20.00
2023-08-20T12:44:13.813Z,27.90
2023-08-20T12:48:11.997Z,22.70
2023-08-20T12:52:10.787Z,21.00
2023-08-20T12:56:08.906Z,19.60
2023-08-20T13:00:06.854Z,18.40
2023-08-20T13:04:05.002Z,14.70
2023-08-20T13:08:02.804Z,19.70
2023-08-20T13:12:02.830Z,21.30
2023-08-20T13:16:00.858Z,18.30
2023-08-20T13:19:58.802Z,15.90
2023-08-20T13:23:56.767Z,14.30
2023-08-20T13:27:54.801Z,12.60
2023-08-20T13:31:52.836Z,11.70
2023-08-20T13:35:50.884Z,11.60
2023-08-20T13:39:48.751Z,11.10
2023-08-20T13:43:46.800Z,11.10
2023-08-20T13:47:53.778Z,11.60
2023-08-20T13:51:51.806Z,13.00
2023-08-20T13:55:49.770Z,16.70
2023-08-20T13:59:47.780Z,15.40
2023-08-20T14:03:45.792Z,18.00
2023-08-20T14:07:43.830Z,16.90
2023-08-20T14:11:41.752Z,15.80
2023-08-20T14:15:39.831Z,16.90
2023-08-20T14:19:37.733Z,16.90
2023-08-20T14:23:35.761Z,18.30
2023-08-20T14:27:33.750Z,20.00
2023-08-20T14:31:31.829Z,20.20
2023-08-20T14:35:29.769Z,18.30
2023-08-20T14:39:27.788Z,16.60
2023-08-20T14:43:25.765Z,15.70
2023-08-20T14:47:23.830Z,17.50
2023-08-20T14:51:21.722Z,19.40
2023-08-20T14:55:19.786Z,15.30
2023-08-20T14:59:17.758Z,14.40
2023-08-20T15:03:15.773Z,16.70
2023-08-20T15:07:13.722Z,20.50
2023-08-20T15:11:15.738Z,26.00
2023-08-20T15:15:13.741Z,25.40
2023-08-20T15:19:11.713Z,24.60
2023-08-20T15:23:34.701Z,22.20
2023-08-20T15:27:33.894Z,23.20
2023-08-20T15:31:31.657Z,19.50
2023-08-20T15:35:29.719Z,15.00
2023-08-20T15:39:27.657Z,13.40
2023-08-20T15:43:25.707Z,16.70
2023-08-20T15:47:23.661Z,11.70
2023-08-20T15:51:21.844Z,12.80
2023-08-20T15:55:19.826Z,11.40
2023-08-20T15:59:17.732Z,10.80
2023-08-20T16:03:16.764Z,14.00
2023-08-20T16:07:14.673Z,10.60
2023-08-20T16:11:12.687Z,13.10
2023-08-20T16:15:10.672Z,14.40
2023-08-20T16:19:08.698Z,11.50
2023-08-20T16:23:06.726Z,15.10
2023-08-20T16:27:04.650Z,13.00
2023-08-20T16:31:02.707Z,11.70
2023-08-20T16:35:00.704Z,13.30
2023-08-20T16:38:58.623Z,12.10
2023-08-20T16:42:56.629Z,14.00
2023-08-20T16:46:54.736Z,11.90
2023-08-20T16:50:52.625Z,12.30
2023-08-20T16:54:50.749Z,14.00
2023-08-20T16:58:48.613Z,15.10
2023-08-20T17:02:46.641Z,14.70
2023-08-20T17:06:44.673Z,16.60
2023-08-20T17:10:42.670Z,14.40
2023-08-20T17:14:40.656Z,14.50
2023-08-20T17:18:39.701Z,19.80
2023-08-20T17:22:37.891Z,17.60
2023-08-20T17:26:35.638Z,16.20
2023-08-20T17:30:34.939Z,15.00
2023-08-20T17:34:33.022Z,16.70
2023-08-20T17:38:31.609Z,20.10
2023-08-20T17:42:17.425Z,15.70
2023-08-20T17:45:41.723Z,18.60
2023-08-20T17:49:06.308Z,19.00
2023-08-20T17:55:54.931Z,22.90
2023-08-20T17:59:19.523Z,21.80
2023-08-20T18:02:45.247Z,23.70
2023-08-20T18:06:11.413Z,17.20
2023-08-20T18:09:36.377Z,21.20
2023-08-20T18:13:00.220Z,17.40
2023-08-20T18:16:24.351Z,18.30
2023-08-20T18:19:48.526Z,18.10
2023-08-20T18:23:12.445Z,18.70
2023-08-20T18:26:50.572Z,15.80
2023-08-20T18:30:14.581Z,17.50
2023-08-20T18:33:38.627Z,20.60
2023-08-20T18:37:02.611Z,17.10
2023-08-20T18:40:26.694Z,15.90
2023-08-20T18:43:51.253Z,16.00
2023-08-20T18:47:15.234Z,17.00
2023-08-20T18:50:39.149Z,16.40
2023-08-20T18:54:04.290Z,15.70
2023-08-20T18:57:28.331Z,16.40
2023-08-20T19:04:16.932Z,15.40
2023-08-20T19:07:43.954Z,16.70
2023-08-20T19:11:07.953Z,17.90
2023-08-20T19:14:32.233Z,15.40
2023-08-20T19:17:56.173Z,17.00
2023-08-20T19:21:20.435Z,22.70
2023-08-20T19:24:45.072Z,15.90
2023-08-20T19:28:09.012Z,16.10
2023-08-20T19:31:33.046Z,17.20
2023-08-20T19:34:57.138Z,16.40
2023-08-20T19:38:21.464Z,17.60
2023-08-20T19:41:45.767Z,17.00
2023-08-20T19:45:41.939Z,16.80
2023-08-20T19:49:06.544Z,17.10
2023-08-20T19:52:30.581Z,18.00
2023-08-20T19:55:58.983Z,18.80
2023-08-20T19:59:23.512Z,16.80
2023-08-20T20:02:48.934Z,17.90
2023-08-20T20:06:37.529Z,18.40
2023-08-20T20:10:02.167Z,18.90
2023-08-20T20:16:50.174Z,16.60
2023-08-20T20:20:14.879Z,17.50
2023-08-20T20:23:38.892Z,16.20
2023-08-20T20:27:02.790Z,17.20
2023-08-20T20:30:27.017Z,18.30
2023-08-20T20:33:51.127Z,17.30
2023-08-20T20:37:15.142Z,16.80
2023-08-20T20:40:43.881Z,18.50
2023-08-20T20:44:07.836Z,17.00
2023-08-20T20:47:31.729Z,17.30
2023-08-20T20:50:55.613Z,17.40
2023-08-20T20:54:19.587Z,16.20
2023-08-20T20:57:43.507Z,16.40
2023-08-20T21:01:08.205Z,19.00
2023-08-20T21:04:32.188Z,18.20
2023-08-20T21:07:56.107Z,17.60
2023-08-20T21:11:20.000Z,15.90
2023-08-20T21:14:44.016Z,16.40
2023-08-20T21:18:08.195Z,17.00
2023-08-20T21:21:33.170Z,17.30
2023-08-20T21:24:57.172Z,16.60
2023-08-20T21:28:21.123Z,18.00
2023-08-20T21:31:45.180Z,16.90
2023-08-20T21:35:09.457Z,17.60
2023-08-20T21:38:34.076Z,17.00
2023-08-20T21:41:58.104Z,16.70
2023-08-20T21:45:22.258Z,17.60
2023-08-20T21:48:46.419Z,16.50
2023-08-20T21:52:10.278Z,16.90
2023-08-20T21:55:34.746Z,17.10
2023-08-20T21:58:58.500Z,17.10
2023-08-20T22:05:13.541Z,17.90
2023-08-20T22:08:37.810Z,17.10
2023-08-20T22:12:01.779Z,18.30
2023-08-20T22:15:25.712Z,20.10
2023-08-20T22:18:51.311Z,17.00
2023-08-20T22:22:15.104Z,17.60
2023-08-20T22:25:39.057Z,21.00
2023-08-20T22:29:03.150Z,17.60
2023-08-20T22:32:27.044Z,20.10
2023-08-20T22:35:52.155Z,17.90
2023-08-20T22:39:16.005Z,17.50
2023-08-20T22:42:40.068Z,18.00
2023-08-20T22:46:04.107Z,18.90
2023-08-20T22:49:28.075Z,18.30
2023-08-20T22:52:52.443Z,16.90
2023-08-20T22:56:17.418Z,17.20
2023-08-20T22:59:41.366Z,18.60
2023-08-20T23:03:06.177Z,17.80
2023-08-20T23:06:30.436Z,17.80
2023-08-20T23:09:54.290Z,17.70
2023-08-20T23:13:18.152Z,17.50
2023-08-20T23:16:42.168Z,18.80
2023-08-20T23:20:08.258Z,19.10
2023-08-20T23:23:32.095Z,18.70
2023-08-20T23:26:56.225Z,19.80
2023-08-20T23:30:20.191Z,19.00
2023-08-20T23:33:44.056Z,18.40
2023-08-20T23:37:08.145Z,19.50
2023-08-20T23:40:31.970Z,17.80
2023-08-20T23:43:55.914Z,17.80
2023-08-20T23:47:19.925Z,19.20
2023-08-20T23:50:46.203Z,18.30
2023-08-20T23:57:56.331Z,18.70
